• Join FlightAware (Why Join?)
  • Login
  • US Flag 
12:46PM EST


 

Airport Tracker/Info


-or-


 

Live Flight TrackerFlight Track Log ✈ JUS196 ✈ 24-Apr-2013 ✈ MMTO / TLC - KLRD

Flight Track Log - Related Links

Times and Time Zones

All times are in EDT time to prevent confusion due to time zone crossing. See the JUS196 flight status page for this flight to view local times or setup timezone preferences in your user account.

Time Position Orientation Groundspeed Altitude Reporting Facility
EDT Latitude Longitude Course Direction KTS MPH feet Rate Location/Type
07:10AM 26.1789 -99.8364 33° Northeast 473 544 27,100  Level Houston Center
07:11AM 26.2806 -99.7636 33° Northeast 452 520 24,000 -3,120 Descending Houston Center
07:12AM 26.3806 -99.6969 31° Northeast 434 499 20,800 -3,000 Descending Houston Center
07:13AM 26.4767 -99.6328 31° Northeast 417 480 18,000 -2,880 Descending Houston Center
07:14AM 26.5719 -99.5989 18° North 389 448 15,100 -2,760 Descending Houston Center
07:15AM 26.6686 -99.5958 North 368 423 12,500 -2,100 Descending Houston Center
07:16AM 26.7592 -99.5875 North 345 397 10,900 -1,500 Descending Houston Center
07:17AM 26.8439 -99.5869 360° North 323 372 9,500 -1,080 Descending Houston Center
07:18AM 26.9161 -99.5528 23° Northeast 260 299 8,800 -900 Descending Houston Center
07:19AM 26.9650 -99.5311 22° Northeast 216 249 7,700 -1,140 Descending Houston Center
07:20AM 27.0128 -99.5083 23° Northeast 197 227 6,600 -1,200 Descending Houston Center
07:21AM 27.0597 -99.4903 19° North 187 215 5,400 -1,140 Descending Houston Center
07:22AM 27.1042 -99.4781 14° North 175 201 4,400 -720 Descending Houston Center
07:23AM 27.1503 -99.4842 353° North 167 192 4,000 -240 Descending Houston Center
07:24AM 27.1950 -99.4803 North 165 190 4,000  Level Houston Center
07:25AM 27.2408 -99.4794 North 164 189 4,000  Level Houston Center
07:26AM 27.2842 -99.4731 North 160 184 4,000 -180 Level Houston Center
07:27AM 27.3328 -99.4753 358° North 166 191 3,700 -720 Descending Houston Center
07:28AM 27.3714 -99.4733 North 155 178 2,600 -600 Descending Houston Center
07:29AM 27.4008 -99.4714 North 132 152 2,500 -120 Descending Houston Center
07:30AM 27.4294 -99.4683 North 114 131 2,400 -420 Descending Houston Center
07:31AM 27.4581 -99.4678 North 107 123 1,700 -600 Descending Houston Center
07:32AM 27.4906 -99.4656 North 102 117 1,200 -480 Descending Houston Center
07:33AM 27.5189 -99.4633 North 100 115 800 -360 Descending Houston Center
07:34AM 27.5425 -99.4636 359° North 102 117 500 -300 Descending Houston Center